Sardis, Louisiana
Current Conditions -  °F | °C
As of 2:15 PM on Friday 31 Oct 2014 (Local Time) from KIER Reporting Station
Clear Clear  
Wind Chill: 72°   Ceiling: Unl
Heat Index: 72°   Visibility: 10mi
Dew Point: 49°   Wind: 15mph
Humidity: 45%   Direction: 350°N
Pressure: 30.15"   Gusts: NA
Location:  31.7915°N, 93.7011°W
Report Text: KIER 311915Z AUTO 35013KT 10SM CLR 22/10 A3015 RMK AO2 T02200096
Loading
Personal Weather Stations






























Interactive Weather Map
Tropical Storm Tracking
New forecast layout! Learn more

10-Day Weather Forecast

Advertisements
Track Severe Weather on mobile